Time;durP1;ratioP1;P1;durP2;ratioP2;P2;SDS_P1;SDS_P2;PMS_P1;PMS_P2;Temp;Humidity;BMP_temperature;BMP_pressure;BME280_temperature;BME280_humidity;BME280_pressure;Samples;Min_cycle;Max_cycle;Signal;HPM_P1;HPM_P2
2021/05/08 00:03:38;;;;;;;25.48;12.82;;;5.00;94.80;;;;;;10330723;28;20053;-63
2021/05/08 00:08:40;;;;;;;24.45;11.10;;;5.00;95.00;;;;;;10325036;28;20064;-62
2021/05/08 00:13:41;;;;;;;17.65;10.32;;;4.90;95.10;;;;;;10331777;28;20057;-62
2021/05/08 00:18:43;;;;;;;24.75;12.07;;;4.80;95.10;;;;;;10330689;28;20053;-64
2021/05/08 00:23:44;;;;;;;19.23;11.18;;;4.80;95.30;;;;;;10323321;28;20045;-63
2021/05/08 00:28:46;;;;;;;21.25;12.38;;;4.80;95.40;;;;;;10325764;28;20053;-63
2021/05/08 00:33:48;;;;;;;22.13;11.60;;;4.80;95.50;;;;;;10324305;28;20203;-63
2021/05/08 00:38:49;;;;;;;16.70;10.10;;;4.70;95.60;;;;;;10330828;28;20069;-63
2021/05/08 00:43:54;;;;;;;20.75;11.38;;;4.70;96.10;;;;;;10327483;28;20084;-64
2021/05/08 00:48:57;;;;;;;19.42;9.43;;;4.60;95.90;;;;;;10334713;28;21239;-63
2021/05/08 00:53:58;;;;;;;19.90;10.75;;;4.60;95.90;;;;;;10332573;28;20084;-63
2021/05/08 00:59:00;;;;;;;23.95;11.32;;;4.50;96.00;;;;;;10324430;28;20053;-63
2021/05/08 01:04:03;;;;;;;21.33;12.23;;;4.40;96.20;;;;;;10328765;28;20045;-63
2021/05/08 01:09:05;;;;;;;23.00;10.48;;;4.50;96.40;;;;;;10330458;28;20095;-64
2021/05/08 01:14:07;;;;;;;22.60;11.50;;;4.50;96.30;;;;;;10324124;28;20053;-63
2021/05/08 01:19:11;;;;;;;16.15;10.10;;;4.30;96.30;;;;;;10325563;28;21501;-63
2021/05/08 01:24:13;;;;;;;18.33;10.98;;;4.10;96.50;;;;;;10328508;28;20100;-63
2021/05/08 01:29:14;;;;;;;19.60;11.57;;;4.00;96.70;;;;;;10330488;28;20045;-62
2021/05/08 01:34:16;;;;;;;18.52;11.32;;;3.90;96.90;;;;;;10330611;28;20056;-63
2021/05/08 01:39:18;;;;;;;20.48;11.95;;;4.00;97.20;;;;;;10333704;28;20057;-62
2021/05/08 01:44:19;;;;;;;23.92;11.98;;;3.90;97.10;;;;;;10337153;28;20056;-63
2021/05/08 01:49:21;;;;;;;22.40;12.02;;;3.90;97.20;;;;;;10338196;28;20049;-64
2021/05/08 01:54:23;;;;;;;24.42;11.65;;;3.80;97.20;;;;;;10336651;28;20138;-62
2021/05/08 01:59:25;;;;;;;37.07;14.10;;;0.60;98.60;;;;;;10332655;28;20053;-62
2021/05/08 02:04:26;;;;;;;24.25;12.73;;;3.90;97.40;;;;;;10337526;28;20049;-62
2021/05/08 02:09:28;;;;;;;23.10;13.10;;;3.90;97.50;;;;;;10334909;28;20049;-62
2021/05/08 02:14:29;;;;;;;24.15;12.65;;;3.90;97.50;;;;;;10334154;28;20146;-63
2021/05/08 02:19:31;;;;;;;23.75;11.90;;;4.00;97.90;;;;;;10334443;28;20118;-63
2021/05/08 02:24:33;;;;;;;18.33;10.90;;;4.10;98.00;;;;;;10328488;28;20049;-63
2021/05/08 02:29:34;;;;;;;22.52;10.93;;;4.20;98.20;;;;;;10337899;28;20189;-63
2021/05/08 02:34:35;;;;;;;21.80;11.55;;;4.20;98.50;;;;;;10332938;28;20053;-63
2021/05/08 02:39:38;;;;;;;21.98;10.80;;;4.30;98.50;;;;;;10333799;28;20063;-63
2021/05/08 02:44:39;;;;;;;19.25;10.63;;;4.40;98.20;;;;;;10329766;28;21607;-63
2021/05/08 02:49:40;;;;;;;13.88;8.52;;;4.50;99.00;;;;;;10331915;28;20776;-63
2021/05/08 02:54:42;;;;;;;15.20;8.40;;;4.60;98.60;;;;;;10337650;28;20056;-63
2021/05/08 02:59:44;;;;;;;14.05;8.35;;;4.60;98.50;;;;;;10338268;28;20086;-63
2021/05/08 03:04:45;;;;;;;14.00;8.80;;;4.60;98.60;;;;;;10341724;28;20045;-62
2021/05/08 03:09:47;;;;;;;14.82;8.05;;;4.60;98.90;;;;;;10337625;28;20713;-62
2021/05/08 03:14:48;;;;;;;17.83;7.97;;;4.60;99.40;;;;;;10335338;28;20048;-61
2021/05/08 03:19:50;;;;;;;15.77;7.68;;;4.60;99.50;;;;;;10329608;28;20083;-62
2021/05/08 03:24:52;;;;;;;16.35;8.98;;;4.70;99.80;;;;;;10339168;28;20742;-62
2021/05/08 03:29:53;;;;;;;16.48;8.75;;;4.90;99.90;;;;;;10335081;28;20091;-63
2021/05/08 03:34:54;;;;;;;16.08;7.72;;;5.00;99.80;;;;;;10337486;28;20049;-63
2021/05/08 03:39:56;;;;;;;20.77;8.00;;;5.10;99.80;;;;;;10330956;28;20127;-63
2021/05/08 03:44:58;;;;;;;14.47;7.80;;;5.20;99.10;;;;;;10339286;28;20068;-63
2021/05/08 03:49:59;;;;;;;14.70;8.27;;;5.20;99.20;;;;;;10339484;28;20139;-62
2021/05/08 03:55:02;;;;;;;14.05;8.23;;;5.30;99.30;;;;;;10338954;28;20049;-62
2021/05/08 04:00:04;;;;;;;;;;;5.40;98.90;;;;;;10339516;28;20059;-63
2021/05/08 04:05:06;;;;;;;16.05;7.25;;;5.60;99.00;;;;;;10338812;28;21126;-62
2021/05/08 04:10:10;;;;;;;15.93;8.52;;;5.80;98.60;;;;;;10337917;28;20045;-63
2021/05/08 04:15:11;;;;;;;12.18;7.10;;;5.90;98.30;;;;;;10336602;28;20080;-62
2021/05/08 04:20:13;;;;;;;14.15;7.55;;;6.10;98.00;;;;;;10335630;28;20114;-61
2021/05/08 04:25:16;;;;;;;12.18;7.03;;;6.40;97.50;;;;;;10335582;28;20048;-62
2021/05/08 04:30:18;;;;;;;15.07;8.37;;;6.60;96.80;;;;;;10335870;28;20056;-61
2021/05/08 04:35:19;;;;;;;14.75;7.97;;;6.80;96.50;;;;;;10336799;28;20056;-62
2021/05/08 04:40:21;;;;;;;14.85;8.95;;;6.90;95.60;;;;;;10334991;28;20048;-62
2021/05/08 04:45:25;;;;;;;12.30;7.90;;;6.90;94.90;;;;;;10332991;28;20049;-62
2021/05/08 04:50:27;;;;;;;14.18;8.15;;;7.00;94.50;;;;;;10338165;28;20059;-61
2021/05/08 04:55:29;;;;;;;14.40;9.02;;;7.20;94.00;;;;;;10336304;28;20068;-62
2021/05/08 05:00:31;;;;;;;17.95;8.85;;;7.40;93.40;;;;;;10335983;28;20794;-61
2021/05/08 05:05:32;;;;;;;15.73;9.13;;;7.60;92.90;;;;;;10334915;28;20459;-61
2021/05/08 05:10:34;;;;;;;14.88;8.27;;;7.80;92.30;;;;;;10337567;28;20564;-61
2021/05/08 05:15:35;;;;;;;13.88;7.15;;;8.20;92.10;;;;;;10333859;28;20053;-61
2021/05/08 05:20:37;;;;;;;13.70;7.60;;;8.50;91.60;;;;;;10337489;28;20053;-62
2021/05/08 05:25:39;;;;;;;11.95;8.15;;;8.80;91.00;;;;;;10335332;28;20049;-62
2021/05/08 05:30:40;;;;;;;13.10;8.93;;;9.00;90.50;;;;;;10336530;28;20578;-62
2021/05/08 05:35:42;;;;;;;19.17;7.82;;;9.00;90.10;;;;;;10335192;28;20057;-62
2021/05/08 05:40:44;;;;;;;12.95;7.80;;;8.90;90.10;;;;;;10334646;28;20045;-62
2021/05/08 05:45:46;;;;;;;9.77;6.72;;;9.00;89.80;;;;;;10336863;28;20052;-62
2021/05/08 05:50:47;;;;;;;11.20;6.85;;;9.10;89.70;;;;;;10336585;28;20056;-62
2021/05/08 05:55:49;;;;;;;14.63;9.07;;;9.30;89.00;;;;;;10334851;28;20763;-63
2021/05/08 06:00:51;;;;;;;16.07;7.13;;;9.40;88.00;;;;;;10334376;28;20099;-62
2021/05/08 06:05:52;;;;;;;16.67;7.47;;;9.40;88.30;;;;;;10335063;28;20060;-63
2021/05/08 06:10:55;;;;;;;15.38;7.72;;;9.40;88.30;;;;;;10339358;28;20429;-63
2021/05/08 06:15:56;;;;;;;15.68;7.63;;;9.40;87.30;;;;;;10342517;28;20194;-62
2021/05/08 06:20:57;;;;;;;14.43;7.50;;;9.50;87.20;;;;;;10344806;28;20048;-62
2021/05/08 06:25:59;;;;;;;10.82;7.93;;;9.60;86.90;;;;;;10343040;28;20057;-62
2021/05/08 06:31:01;;;;;;;13.33;7.67;;;9.80;86.90;;;;;;10339333;28;20083;-62
2021/05/08 06:36:02;;;;;;;12.07;7.45;;;10.00;86.40;;;;;;10342907;28;21257;-63
2021/05/08 06:41:04;;;;;;;11.55;7.30;;;10.10;85.90;;;;;;10342555;28;20497;-63
2021/05/08 06:46:07;;;;;;;17.63;7.07;;;10.20;85.30;;;;;;10328257;28;20067;-62
2021/05/08 06:51:08;;;;;;;32.13;8.77;;;10.40;84.10;;;;;;10337817;28;20409;-62
2021/05/08 06:56:11;;;;;;;14.20;7.03;;;10.60;82.90;;;;;;10335639;28;20070;-62
2021/05/08 07:01:12;;;;;;;13.45;6.70;;;10.70;81.90;;;;;;10341254;28;20417;-61
2021/05/08 07:06:13;;;;;;;11.30;7.28;;;10.80;81.50;;;;;;10340867;28;20437;-63
2021/05/08 07:11:15;;;;;;;11.82;7.15;;;10.90;81.00;;;;;;10340708;28;20052;-62
2021/05/08 07:16:16;;;;;;;11.57;7.00;;;11.10;80.60;;;;;;10341053;28;20049;-64
2021/05/08 07:21:18;;;;;;;14.70;7.30;;;11.30;79.60;;;;;;10339493;28;20104;-63
2021/05/08 07:26:20;;;;;;;17.02;8.00;;;11.60;78.40;;;;;;10340212;28;21721;-61
2021/05/08 07:31:21;;;;;;;13.77;6.07;;;11.70;76.60;;;;;;10337505;28;20052;-62
2021/05/08 07:36:23;;;;;;;12.20;6.78;;;11.60;77.00;;;;;;10336905;28;20898;-63
2021/05/08 07:41:25;;;;;;;15.32;6.57;;;11.70;77.00;;;;;;10319425;28;20088;-64
2021/05/08 07:46:27;;;;;;;17.88;7.75;;;12.00;76.10;;;;;;10338429;28;20060;-63
2021/05/08 07:51:28;;;;;;;12.23;5.97;;;12.40;75.70;;;;;;10334773;28;20053;-64
2021/05/08 07:56:33;;;;;;;12.07;5.63;;;12.70;74.20;;;;;;10330809;28;20060;-64
2021/05/08 08:01:34;;;;;;;13.63;6.13;;;12.90;73.40;;;;;;10327920;28;20509;-63
2021/05/08 08:06:36;;;;;;;13.23;5.88;;;13.40;71.10;;;;;;10329881;28;20057;-64
2021/05/08 08:11:38;;;;;;;12.93;6.00;;;14.10;67.30;;;;;;10333455;28;20057;-63
2021/05/08 08:16:39;;;;;;;14.67;5.90;;;14.50;66.10;;;;;;10333813;28;20048;-64
2021/05/08 08:21:41;;;;;;;9.45;6.00;;;14.80;64.60;;;;;;10332109;28;20080;-64
2021/05/08 08:26:43;;;;;;;10.77;6.75;;;14.70;63.80;;;;;;10332610;28;20107;-64
2021/05/08 08:31:45;;;;;;;13.67;6.67;;;14.60;63.50;;;;;;10325444;28;20197;-64
2021/05/08 08:36:46;;;;;;;9.60;5.28;;;14.50;63.60;;;;;;10329661;28;20531;-63
2021/05/08 08:41:48;;;;;;;8.38;5.47;;;14.50;63.30;;;;;;10333314;28;20053;-65
2021/05/08 08:46:50;;;;;;;12.80;5.93;;;14.40;64.30;;;;;;10327314;28;20089;-64
2021/05/08 08:51:51;;;;;;;10.70;5.40;;;14.20;65.70;;;;;;10333249;28;20053;-64
2021/05/08 08:56:54;;;;;;;15.20;8.43;;;13.90;71.30;;;;;;10329548;28;20053;-63
2021/05/08 09:01:55;;;;;;;12.18;6.53;;;13.60;79.40;;;;;;10314585;28;20114;-64
2021/05/08 09:06:57;;;;;;;14.48;6.63;;;13.40;83.10;;;;;;10308424;28;21718;-64
2021/05/08 09:11:59;;;;;;;11.95;7.07;;;13.10;84.80;;;;;;10305816;28;20125;-63
2021/05/08 09:17:09;;;;;;;15.73;6.23;;;12.80;87.10;;;;;;10307930;28;20053;-64
2021/05/08 09:22:25;;;;;;;12.57;6.47;;;12.60;89.10;;;;;;10307452;28;20438;-66
2021/05/08 09:27:35;;;;;;;16.67;7.03;;;12.70;90.10;;;;;;10311466;28;20056;-65
2021/05/08 09:32:40;;;;;;;20.55;6.47;;;12.60;90.90;;;;;;10313141;28;20049;-65
2021/05/08 09:37:42;;;;;;;18.38;7.60;;;12.30;91.60;;;;;;10308707;28;20064;-65
2021/05/08 09:42:46;;;;;;;10.98;7.28;;;12.10;93.40;;;;;;10305821;28;20061;-65
2021/05/08 09:47:47;;;;;;;13.65;7.00;;;11.80;94.50;;;;;;10315580;28;21892;-65
2021/05/08 09:52:51;;;;;;;17.33;7.38;;;11.60;96.10;;;;;;10313114;28;20063;-64
2021/05/08 09:58:01;;;;;;;18.20;7.40;;;11.50;97.30;;;;;;10310528;28;22097;-63
2021/05/08 10:03:07;;;;;;;10.73;6.35;;;11.40;98.20;;;;;;10313045;28;20910;-63
2021/05/08 10:08:09;;;;;;;20.05;6.85;;;11.10;99.40;;;;;;10311205;28;20053;-63
2021/05/08 10:13:12;;;;;;;18.67;8.57;;;11.00;99.90;;;;;;10314543;28;20064;-63
2021/05/08 10:18:14;;;;;;;23.25;8.43;;;10.70;99.90;;;;;;10306271;28;20099;-67
2021/05/08 10:23:16;;;;;;;13.65;8.38;;;10.70;99.90;;;;;;10304456;28;20059;-64
2021/05/08 10:28:18;;;;;;;20.40;12.00;;;10.80;99.90;;;;;;10303554;28;20056;-65
2021/05/08 10:33:21;;;;;;;17.13;10.17;;;11.00;99.90;;;;;;10313642;28;20048;-64
2021/05/08 10:38:27;;;;;;;18.65;9.60;;;10.80;99.90;;;;;;10310697;28;21479;-63
2021/05/08 10:43:47;;;;;;;19.73;8.40;;;10.60;99.90;;;;;;10310086;28;20176;-63
2021/05/08 10:49:20;;;;;;;24.02;9.77;;;10.30;99.90;;;;;;10313084;28;20055;-63
2021/05/08 10:54:54;;;;;;;15.77;8.10;;;10.20;99.90;;;;;;10307929;28;20462;-62
2021/05/08 11:00:24;;;;;;;25.00;8.10;;;10.10;99.90;;;;;;10316484;28;20053;-63
2021/05/08 11:05:27;;;;;;;37.05;9.52;;;10.20;99.90;;;;;;10305649;28;22241;-65
2021/05/08 11:10:39;;;;;;;17.48;8.13;;;10.20;99.90;;;;;;10325310;28;21203;-62
2021/05/08 11:16:10;;;;;;;21.33;8.60;;;10.30;99.90;;;;;;10337249;28;22430;-61
2021/05/08 11:21:40;;;;;;;17.45;8.57;;;10.40;99.90;;;;;;10336982;28;20092;-63
2021/05/08 11:26:43;;;;;;;12.73;7.70;;;10.50;99.90;;;;;;10338861;28;20585;-62
2021/05/08 11:31:47;;;;;;;21.08;9.50;;;10.60;99.90;;;;;;10336732;28;20048;-63
2021/05/08 11:36:54;;;;;;;18.38;8.88;;;10.60;99.90;;;;;;10318343;28;20049;-62
2021/05/08 11:41:57;;;;;;;17.85;9.32;;;10.60;99.90;;;;;;10337197;28;20053;-62
2021/05/08 11:47:00;;;;;;;;;;;10.70;99.90;;;;;;10333278;28;21021;-62
2021/05/08 11:52:03;;;;;;;16.52;8.20;;;11.00;99.90;;;;;;10335945;28;20774;-64
2021/05/08 11:57:18;;;;;;;12.13;8.68;;;10.80;99.90;;;;;;10334882;28;20082;-63
2021/05/08 12:02:22;;;;;;;14.05;7.97;;;10.80;99.90;;;;;;10336638;28;20881;-63
2021/05/08 12:07:25;;;;;;;15.38;9.55;;;10.80;99.90;;;;;;10331486;28;20074;-63
2021/05/08 12:12:27;;;;;;;18.90;8.98;;;10.90;99.90;;;;;;10334459;28;20519;-62
2021/05/08 12:17:29;;;;;;;13.15;6.75;;;10.90;99.90;;;;;;10336872;28;20120;-62
2021/05/08 12:22:30;;;;;;;20.60;8.37;;;10.90;99.90;;;;;;10334204;28;22036;-63
2021/05/08 12:27:32;;;;;;;13.68;7.80;;;12.20;99.90;;;;;;10336760;28;20057;-62
2021/05/08 12:32:34;;;;;;;13.00;8.57;;;10.70;99.90;;;;;;10334966;28;20048;-63
2021/05/08 12:37:40;;;;;;;11.90;6.90;;;10.70;99.90;;;;;;10331419;28;20088;-62
2021/05/08 12:42:44;;;;;;;11.50;7.80;;;10.70;99.90;;;;;;10331296;28;20808;-62
2021/05/08 12:47:47;;;;;;;19.95;10.30;;;10.60;99.90;;;;;;10330122;28;20057;-62
2021/05/08 12:52:57;;;;;;;;;;;10.50;99.90;;;;;;10310659;28;20049;-63
2021/05/08 12:58:08;;;;;;;15.82;9.25;;;10.60;99.90;;;;;;10293940;28;21300;-63
2021/05/08 13:03:21;;;;;;;14.18;9.43;;;10.60;99.90;;;;;;10292077;28;20433;-62
2021/05/08 13:08:43;;;;;;;13.20;8.87;;;10.40;99.90;;;;;;10287597;28;20049;-63
2021/05/08 13:13:44;;;;;;;13.88;9.00;;;10.40;99.90;;;;;;10295750;28;20059;-63
2021/05/08 13:18:46;;;;;;;17.17;10.68;;;10.40;99.90;;;;;;10299901;28;20049;-63
2021/05/08 13:23:48;;;;;;;14.53;8.60;;;10.50;99.90;;;;;;10297646;28;20179;-63
2021/05/08 13:28:49;;;;;;;21.23;9.77;;;10.60;99.90;;;;;;10301828;28;20160;-62
2021/05/08 13:33:52;;;;;;;15.18;10.60;;;10.60;99.90;;;;;;10298890;28;20126;-62
2021/05/08 13:38:53;;;;;;;19.80;10.90;;;10.80;99.90;;;;;;10297196;28;22809;-62
2021/05/08 13:43:54;;;;;;;16.85;10.65;;;10.80;99.90;;;;;;10301319;28;20779;-64
2021/05/08 13:48:57;;;;;;;19.15;12.40;;;10.80;99.90;;;;;;10299895;28;20083;-63
2021/05/08 13:53:58;;;;;;;16.40;11.20;;;11.10;99.90;;;;;;10298864;28;20154;-63
2021/05/08 13:58:59;;;;;;;14.32;10.57;;;11.10;99.90;;;;;;10298336;28;20045;-62
2021/05/08 14:04:02;;;;;;;16.45;10.38;;;11.20;99.90;;;;;;10302469;28;20060;-62
2021/05/08 14:09:04;;;;;;;17.27;9.87;;;11.60;99.90;;;;;;10298400;28;20146;-62
2021/05/08 14:14:05;;;;;;;17.00;9.63;;;12.00;99.90;;;;;;10301441;28;21653;-62
2021/05/08 14:19:07;;;;;;;30.98;13.95;;;12.20;99.90;;;;;;10296321;28;20195;-62
2021/05/08 14:24:09;;;;;;;12.73;9.77;;;12.40;99.90;;;;;;10299425;28;20041;-61
2021/05/08 14:29:12;;;;;;;17.83;10.17;;;12.70;99.90;;;;;;10298992;28;20534;-62
2021/05/08 14:34:14;;;;;;;13.88;10.35;;;13.00;99.90;;;;;;10310883;28;20057;-62
2021/05/08 14:39:17;;;;;;;19.73;10.13;;;13.40;99.90;;;;;;10306392;28;20821;-63
2021/05/08 14:44:18;;;;;;;;;;;13.40;99.90;;;;;;10310609;28;21945;-62
2021/05/08 14:49:21;;;;;;;17.55;11.82;;;13.40;99.90;;;;;;10301561;28;20689;-62
2021/05/08 14:54:22;;;;;;;12.95;9.23;;;13.70;99.90;;;;;;10302925;28;20053;-61
2021/05/08 14:59:23;;;;;;;18.25;10.27;;;13.90;99.90;;;;;;10306379;28;20051;-62
2021/05/08 15:04:26;;;;;;;16.33;10.20;;;14.10;99.90;;;;;;10305565;28;20119;-62
2021/05/08 15:09:29;;;;;;;15.77;10.07;;;14.20;99.90;;;;;;10302237;28;20048;-61
2021/05/08 15:14:31;;;;;;;13.38;7.15;;;14.40;99.90;;;;;;10295174;28;20049;-62
2021/05/08 15:19:33;;;;;;;14.95;7.15;;;14.80;99.90;;;;;;10299468;28;20057;-62
2021/05/08 15:24:35;;;;;;;14.50;8.27;;;15.10;99.90;;;;;;10300617;28;20057;-61
2021/05/08 15:29:38;;;;;;;13.82;8.35;;;15.40;99.90;;;;;;10299509;28;20057;-61
2021/05/08 15:34:40;;;;;;;12.95;9.85;;;15.70;99.90;;;;;;10302491;28;20071;-59
2021/05/08 15:39:42;;;;;;;14.10;8.00;;;16.40;99.90;;;;;;10298724;28;20094;-61
2021/05/08 15:44:43;;;;;;;11.05;7.13;;;16.40;99.90;;;;;;10301664;28;20057;-62
2021/05/08 15:49:45;;;;;;;16.45;10.30;;;17.00;99.60;;;;;;10300402;28;20041;-62
2021/05/08 15:54:47;;;;;;;9.70;7.50;;;17.50;97.80;;;;;;10302587;28;20064;-63
2021/05/08 15:59:48;;;;;;;12.25;7.40;;;17.50;97.30;;;;;;10299285;28;20053;-62
2021/05/08 16:04:50;;;;;;;13.57;7.15;;;17.60;96.70;;;;;;10295438;28;20524;-62
2021/05/08 16:09:52;;;;;;;12.48;7.10;;;17.90;96.10;;;;;;10303325;28;20081;-62
2021/05/08 16:14:53;;;;;;;11.00;7.15;;;18.00;95.20;;;;;;10297377;28;20057;-59
2021/05/08 16:19:56;;;;;;;9.88;7.38;;;18.10;95.00;;;;;;10290673;28;20063;-62
2021/05/08 16:24:58;;;;;;;16.27;8.85;;;18.10;94.60;;;;;;10298913;28;20198;-61
2021/05/08 16:29:59;;;;;;;13.35;7.43;;;18.10;94.50;;;;;;10300501;28;20674;-60
2021/05/08 16:35:01;;;;;;;19.05;6.93;;;18.20;94.30;;;;;;10294866;28;20170;-59
2021/05/08 16:40:03;;;;;;;13.40;7.68;;;18.20;94.20;;;;;;10299032;28;20191;-61
2021/05/08 16:45:06;;;;;;;12.30;8.30;;;18.20;94.20;;;;;;10300988;28;20052;-61
2021/05/08 16:50:10;;;;;;;12.80;7.10;;;18.10;94.30;;;;;;10296673;28;20496;-60
2021/05/08 16:55:13;;;;;;;10.93;7.03;;;18.00;94.40;;;;;;10295823;28;20067;-61
2021/05/08 17:00:17;;;;;;;13.82;7.82;;;17.90;94.30;;;;;;10300879;28;20053;-61
2021/05/08 17:05:20;;;;;;;11.38;6.95;;;17.80;94.40;;;;;;10273906;28;20050;-63
2021/05/08 17:10:26;;;;;;;9.20;6.00;;;17.70;94.40;;;;;;10298032;28;20444;-63
2021/05/08 17:15:27;;;;;;;11.50;6.07;;;17.80;94.30;;;;;;10297688;28;20787;-63
2021/05/08 17:20:30;;;;;;;12.90;5.93;;;17.90;93.80;;;;;;10294129;28;20736;-62
2021/05/08 17:25:31;;;;;;;15.82;5.82;;;17.80;93.90;;;;;;10298902;28;20486;-59
2021/05/08 17:30:33;;;;;;;10.43;5.78;;;17.80;94.10;;;;;;10297566;28;20646;-60
2021/05/08 17:35:36;;;;;;;10.68;6.07;;;17.60;94.40;;;;;;10299269;28;20049;-62
2021/05/08 17:40:37;;;;;;;11.73;5.20;;;17.50;94.80;;;;;;10295143;28;20905;-64
2021/05/08 17:45:39;;;;;;;7.33;5.33;;;17.60;94.90;;;;;;10298421;28;21279;-61
2021/05/08 17:50:41;;;;;;;11.27;5.32;;;17.60;94.90;;;;;;10298210;28;21373;-63
2021/05/08 17:55:42;;;;;;;15.98;6.32;;;17.50;94.90;;;;;;10298966;28;20053;-62
2021/05/08 18:00:44;;;;;;;15.05;6.47;;;17.40;95.10;;;;;;10298895;28;20053;-63
2021/05/08 18:05:46;;;;;;;15.48;7.35;;;17.30;95.40;;;;;;10301846;28;20508;-62
2021/05/08 18:10:47;;;;;;;9.05;5.65;;;17.30;95.70;;;;;;10300955;28;20254;-63
2021/05/08 18:15:49;;;;;;;9.13;5.45;;;17.20;95.80;;;;;;10301136;28;20052;-62
2021/05/08 18:20:51;;;;;;;10.77;5.25;;;17.10;95.80;;;;;;10301527;28;20056;-63
2021/05/08 18:25:52;;;;;;;;;;;17.00;96.20;;;;;;10298257;28;20468;-65
2021/05/08 18:30:54;;;;;;;8.32;5.05;;;16.50;96.40;;;;;;10305296;28;19952;-63
2021/05/08 18:35:56;;;;;;;12.60;4.65;;;16.80;96.70;;;;;;10303030;28;20797;-61
2021/05/08 18:40:58;;;;;;;11.90;6.03;;;16.70;96.90;;;;;;10304426;28;20938;-61
2021/05/08 18:46:00;;;;;;;12.60;6.18;;;16.70;97.20;;;;;;10302088;28;20596;-61
2021/05/08 18:51:02;;;;;;;7.68;4.97;;;16.60;97.50;;;;;;10301005;28;20041;-60
2021/05/08 18:56:04;;;;;;;13.13;6.88;;;16.60;97.60;;;;;;10298703;28;20049;-60
2021/05/08 19:01:05;;;;;;;10.55;6.82;;;17.50;98.10;;;;;;10296969;28;20460;-60
2021/05/08 19:06:07;;;;;;;10.10;4.95;;;16.30;98.10;;;;;;10298659;28;20785;-62
2021/05/08 19:11:09;;;;;;;11.18;5.20;;;16.20;98.30;;;;;;10298568;28;20053;-62
2021/05/08 19:16:10;;;;;;;13.80;4.68;;;17.30;98.90;;;;;;10302743;28;20060;-61
2021/05/08 19:21:12;;;;;;;7.65;4.75;;;16.10;98.80;;;;;;10302856;28;20056;-61
2021/05/08 19:26:14;;;;;;;6.53;4.63;;;16.10;98.80;;;;;;10300671;28;21247;-60
2021/05/08 19:31:15;;;;;;;10.15;3.92;;;16.00;98.90;;;;;;10301249;28;20075;-61
2021/05/08 19:36:18;;;;;;;7.03;4.03;;;16.00;99.10;;;;;;10302798;28;20052;-61
2021/05/08 19:41:19;;;;;;;7.88;4.43;;;15.90;99.20;;;;;;10299741;28;20052;-60
2021/05/08 19:46:20;;;;;;;9.98;4.35;;;15.90;99.40;;;;;;10296252;28;20060;-61
2021/05/08 19:51:22;;;;;;;11.77;4.55;;;15.80;99.60;;;;;;10293584;28;20053;-62
2021/05/08 19:56:24;;;;;;;17.17;4.90;;;15.80;99.80;;;;;;10294989;28;21687;-61
2021/05/08 20:01:25;;;;;;;14.80;5.25;;;15.70;99.90;;;;;;10300793;28;20118;-62
2021/05/08 20:06:27;;;;;;;8.77;5.30;;;15.70;99.90;;;;;;10297362;28;20118;-60
2021/05/08 20:11:29;;;;;;;12.13;4.95;;;15.70;99.90;;;;;;10294566;28;20060;-60
2021/05/08 20:16:30;;;;;;;9.55;5.20;;;15.60;99.90;;;;;;10299957;28;20086;-62
2021/05/08 20:21:32;;;;;;;9.93;5.05;;;15.50;99.90;;;;;;10297157;28;20094;-62
2021/05/08 20:26:33;;;;;;;15.03;4.43;;;15.50;99.90;;;;;;10297660;28;20478;-62
2021/05/08 20:31:35;;;;;;;10.18;4.00;;;15.40;99.90;;;;;;10302149;28;20522;-64
2021/05/08 20:36:37;;;;;;;11.75;3.65;;;15.40;99.80;;;;;;10298206;28;21280;-62
2021/05/08 20:41:40;;;;;;;5.80;3.15;;;15.40;99.60;;;;;;10292469;28;20794;-61
2021/05/08 20:46:43;;;;;;;10.38;2.70;;;15.40;98.80;;;;;;10300120;28;20059;-61
2021/05/08 20:51:45;;;;;;;11.95;4.53;;;15.40;98.00;;;;;;10297188;28;20421;-60
2021/05/08 20:56:49;;;;;;;;;;;15.20;97.90;;;;;;10297371;28;20068;-60
2021/05/08 21:01:51;;;;;;;5.72;2.42;;;15.10;98.10;;;;;;10295889;28;20348;-61
2021/05/08 21:06:54;;;;;;;6.10;2.60;;;15.00;97.90;;;;;;10301166;28;20055;-62
2021/05/08 21:11:57;;;;;;;8.40;2.85;;;15.00;97.60;;;;;;10298861;28;20164;-60
2021/05/08 21:16:59;;;;;;;14.20;3.40;;;14.90;97.60;;;;;;10295686;28;20080;-65
2021/05/08 21:22:01;;;;;;;8.05;3.47;;;14.80;97.60;;;;;;10295750;28;20367;-61
2021/05/08 21:27:03;;;;;;;14.80;3.77;;;16.40;98.20;;;;;;10296359;28;20410;-61
2021/05/08 21:32:05;;;;;;;8.43;3.97;;;14.00;97.70;;;;;;10299891;28;20487;-61
2021/05/08 21:37:07;;;;;;;15.63;4.37;;;14.50;98.20;;;;;;10300125;28;20060;-62
2021/05/08 21:42:09;;;;;;;12.90;4.55;;;14.20;99.20;;;;;;10307843;28;20126;-61
2021/05/08 21:47:10;;;;;;;8.75;3.92;;;14.30;99.40;;;;;;10292685;28;20057;-59
2021/05/08 21:52:13;;;;;;;14.07;5.20;;;14.30;99.60;;;;;;10309158;28;20056;-60
2021/05/08 21:57:15;;;;;;;17.63;5.40;;;14.30;99.40;;;;;;10306640;28;20139;-61
2021/05/08 22:02:16;;;;;;;13.10;4.50;;;14.10;99.80;;;;;;10305087;28;20513;-61
2021/05/08 22:07:20;;;;;;;15.40;5.25;;;13.90;99.90;;;;;;10300122;28;20510;-60
2021/05/08 22:12:21;;;;;;;12.82;6.03;;;13.80;99.90;;;;;;10303548;28;21740;-60
2021/05/08 22:17:22;;;;;;;17.25;5.35;;;13.60;99.90;;;;;;10305281;28;20131;-61
2021/05/08 22:22:25;;;;;;;12.25;5.68;;;13.50;99.90;;;;;;10302430;28;20060;-61
2021/05/08 22:27:26;;;;;;;10.73;5.32;;;13.30;99.90;;;;;;10304592;28;21682;-60
2021/05/08 22:32:28;;;;;;;12.05;5.88;;;13.20;99.90;;;;;;10304270;28;22354;-61
2021/05/08 22:37:30;;;;;;;11.18;6.00;;;13.00;99.90;;;;;;10300030;28;22164;-61
2021/05/08 22:42:32;;;;;;;14.90;6.20;;;12.90;99.90;;;;;;10302566;28;20440;-61
2021/05/08 22:47:33;;;;;;;16.60;6.18;;;12.80;99.90;;;;;;10305109;28;20083;-61
2021/05/08 22:52:37;;;;;;;13.40;6.78;;;12.80;99.90;;;;;;10300865;28;20347;-60
2021/05/08 22:57:39;;;;;;;16.33;6.75;;;12.70;99.90;;;;;;10300179;28;22035;-60
2021/05/08 23:02:41;;;;;;;12.63;6.78;;;12.60;99.90;;;;;;10296837;28;21021;-61
2021/05/08 23:07:43;;;;;;;22.23;8.40;;;12.60;99.90;;;;;;10299075;28;20525;-60
2021/05/08 23:12:45;;;;;;;13.25;7.75;;;12.50;99.90;;;;;;10298760;28;20650;-61
2021/05/08 23:17:46;;;;;;;11.35;7.85;;;12.40;99.90;;;;;;10298977;28;20076;-59
2021/05/08 23:22:48;;;;;;;19.83;8.02;;;12.20;99.90;;;;;;10302229;28;20060;-61
2021/05/08 23:27:49;;;;;;;20.53;9.13;;;12.10;99.90;;;;;;10301087;28;20122;-61
2021/05/08 23:32:51;;;;;;;18.75;7.88;;;12.00;99.90;;;;;;10300376;28;20055;-60
2021/05/08 23:37:53;;;;;;;18.75;8.35;;;12.00;99.90;;;;;;10300612;28;20076;-62
2021/05/08 23:42:55;;;;;;;17.73;8.32;;;12.10;99.90;;;;;;10302002;28;20064;-61
2021/05/08 23:47:56;;;;;;;16.05;7.93;;;12.00;99.90;;;;;;10298501;28;20079;-63
2021/05/08 23:52:58;;;;;;;15.63;9.25;;;10.50;99.90;;;;;;10297939;28;20040;-62
2021/05/08 23:58:00;;;;;;;18.85;9.10;;;12.10;99.90;;;;;;10300611;28;20057;-61
